Time;durP1;ratioP1;P1;durP2;ratioP2;P2;SDS_P1;SDS_P2;PMS_P1;PMS_P2;Temp;Humidity;BMP_temperature;BMP_pressure;BME280_temperature;BME280_humidity;BME280_pressure;Samples;Min_cycle;Max_cycle;Signal;HPM_P1;HPM_P2
2023/07/06 00:01:57;;;;;;;7.80;0.73;;;;;;;17.15;64.57;101211.72;5278895;23;19953;-76
2023/07/06 00:04:24;;;;;;;6.13;0.60;;;;;;;17.15;64.47;101217.00;5019096;28;20069;-76
2023/07/06 00:06:51;;;;;;;4.30;0.93;;;;;;;17.13;64.58;101213.56;5021256;28;20068;-76
2023/07/06 00:09:20;;;;;;;5.50;0.57;;;;;;;17.13;64.83;101205.63;5021708;28;20045;-77
2023/07/06 00:11:48;;;;;;;3.20;1.02;;;;;;;17.12;64.95;101206.56;5021918;28;20046;-76
2023/07/06 00:14:16;;;;;;;2.83;0.73;;;;;;;17.08;64.93;101201.41;5025443;28;20492;-77
2023/07/06 00:16:47;;;;;;;8.70;0.80;;;;;;;17.09;65.00;101207.53;5023455;28;20046;-77
2023/07/06 00:19:19;;;;;;;3.10;0.50;;;;;;;17.06;65.11;101200.59;5019226;28;20473;-77
2023/07/06 00:21:46;;;;;;;3.67;0.95;;;;;;;17.06;64.94;101207.66;5021725;28;20511;-77
2023/07/06 00:24:15;;;;;;;7.85;1.08;;;;;;;17.02;64.88;101199.00;5025597;28;20046;-76
2023/07/06 00:26:43;;;;;;;4.85;0.85;;;;;;;17.00;64.95;101200.84;5023257;28;20056;-74
2023/07/06 00:29:10;;;;;;;7.28;0.85;;;;;;;16.96;64.98;101198.38;5022365;28;20060;-74
2023/07/06 00:31:50;;;;;;;4.35;0.70;;;;;;;16.84;65.21;101183.88;5024363;28;20613;-74
2023/07/06 00:34:18;;;;;;;1.77;0.52;;;;;;;16.91;65.22;101190.66;5024188;28;20088;-73
2023/07/06 00:36:46;;;;;;;7.63;0.90;;;;;;;16.93;64.96;101201.13;5025708;28;20046;-77
2023/07/06 00:39:13;;;;;;;4.22;0.88;;;;;;;16.85;65.37;101191.75;5023783;28;20041;-74
2023/07/06 00:41:40;;;;;;;5.13;0.60;;;;;;;16.86;64.91;101200.50;5021323;28;20049;-77
2023/07/06 00:44:54;;;;;;;3.10;0.50;;;;;;;16.84;64.50;101203.19;5024735;28;20037;-78
2023/07/06 00:47:32;;;;;;;2.88;0.50;;;;;;;16.79;64.76;101191.09;4964632;28;20458;-77
2023/07/06 00:50:02;;;;;;;3.47;0.50;;;;;;;16.77;64.67;101191.16;4960266;28;20495;-77
2023/07/06 00:52:30;;;;;;;3.78;0.50;;;;;;;16.75;64.82;101190.31;4996698;28;20477;-78
2023/07/06 00:55:00;;;;;;;4.57;0.50;;;;;;;16.71;64.65;101180.81;5021750;28;20061;-77
2023/07/06 00:57:27;;;;;;;3.47;0.47;;;;;;;16.70;64.75;101180.84;5022898;28;20072;-77
2023/07/06 00:59:55;;;;;;;2.40;0.50;;;;;;;16.67;64.44;101183.63;5018694;28;20432;-78
2023/07/06 01:02:23;;;;;;;2.90;0.57;;;;;;;16.62;64.74;101186.41;5024722;28;20060;-78
2023/07/06 01:04:51;;;;;;;5.55;0.85;;;;;;;16.58;64.65;101187.47;5026664;28;20042;-78
2023/07/06 01:07:22;;;;;;;1.48;0.50;;;;;;;16.54;64.62;101183.22;5026243;28;20136;-77
2023/07/06 01:09:49;;;;;;;2.35;0.40;;;;;;;16.51;64.66;101183.34;5026825;28;20053;-77
2023/07/06 01:12:17;;;;;;;3.72;0.60;;;;;;;16.43;64.67;101180.97;5025724;28;20042;-76
2023/07/06 01:14:45;;;;;;;2.55;0.50;;;;;;;16.39;64.77;101172.31;5025062;28;20053;-76
2023/07/06 01:17:18;;;;;;;2.83;0.40;;;;;;;16.33;65.05;101172.50;5022276;28;20414;-76
2023/07/06 01:20:13;;;;;;;1.85;0.35;;;;;;;16.30;64.83;101171.78;5026180;28;20052;-77
2023/07/06 01:23:12;;;;;;;5.93;1.95;;;;;;;16.26;64.92;101168.41;5020609;28;20088;-77
2023/07/06 01:26:00;;;;;;;4.22;0.70;;;;;;;16.21;64.90;101159.78;5003643;28;20051;-76
2023/07/06 01:28:45;;;;;;;2.25;0.30;;;;;;;16.18;65.07;101144.94;5024291;28;20103;-76
2023/07/06 01:31:36;;;;;;;3.17;0.40;;;;;;;16.15;64.86;101138.94;5025260;28;20045;-76
2023/07/06 01:34:11;;;;;;;4.05;0.40;;;;;;;16.09;64.99;101132.09;5016563;28;20057;-76
2023/07/06 01:36:44;;;;;;;5.65;0.43;;;;;;;16.06;64.93;101134.84;5022555;28;20046;-77
2023/07/06 01:39:13;;;;;;;1.20;0.40;;;;;;;16.03;65.00;101126.19;5025461;28;20041;-77
2023/07/06 01:41:41;;;;;;;3.03;0.40;;;;;;;15.99;65.12;101120.16;5021951;28;20072;-74
2023/07/06 01:44:10;;;;;;;2.00;0.45;;;;;;;15.96;65.17;101113.22;5024959;28;20045;-75
2023/07/06 01:46:43;;;;;;;2.13;0.30;;;;;;;15.92;64.90;101114.25;5019254;28;20170;-77
2023/07/06 01:49:10;;;;;;;4.50;0.98;;;;;;;15.91;65.01;101109.91;5025083;28;20092;-77
2023/07/06 01:51:45;;;;;;;1.40;0.30;;;;;;;15.89;65.02;101095.06;5022445;28;20489;-77
2023/07/06 01:54:20;;;;;;;1.48;0.30;;;;;;;15.84;65.11;101092.56;5023173;28;20080;-77
2023/07/06 01:57:01;;;;;;;1.02;0.50;;;;;;;15.81;65.14;101091.84;5020432;28;20188;-76
2023/07/06 01:59:33;;;;;;;3.03;0.63;;;;;;;15.77;65.18;101090.19;5023065;28;20052;-76
2023/07/06 02:02:07;;;;;;;1.98;0.30;;;;;;;15.72;65.18;101085.13;5025193;28;20119;-76
2023/07/06 02:04:37;;;;;;;2.28;0.40;;;;;;;15.68;64.97;101076.47;5023728;28;20057;-76
2023/07/06 02:07:07;;;;;;;4.20;0.40;;;;;;;15.64;65.30;101080.06;5020768;28;20056;-76
2023/07/06 02:09:44;;;;;;;7.00;1.02;;;;;;;15.61;65.51;101076.69;5024436;28;20053;-76
2023/07/06 02:12:12;;;;;;;2.08;0.30;;;;;;;15.55;65.74;101063.75;5020538;28;20041;-71
2023/07/06 02:14:40;;;;;;;5.07;0.50;;;;;;;15.51;65.86;101071.75;5022216;28;20115;-71
2023/07/06 02:17:09;;;;;;;1.55;0.50;;;;;;;15.48;66.00;101069.22;5025125;28;20046;-74
2023/07/06 02:19:36;;;;;;;3.15;0.50;;;;;;;15.46;66.10;101071.03;5020742;28;20569;-74
2023/07/06 02:22:05;;;;;;;6.50;0.60;;;;;;;15.42;66.22;101069.41;5024085;28;20059;-73
2023/07/06 02:24:32;;;;;;;3.25;0.40;;;;;;;15.39;66.32;101064.25;5023419;28;20053;-76
2023/07/06 02:26:59;;;;;;;3.70;0.60;;;;;;;15.40;66.60;101075.66;5024385;28;20046;-74
2023/07/06 02:29:26;;;;;;;2.65;0.50;;;;;;;15.41;66.47;101066.84;5023976;28;20393;-76
2023/07/06 02:31:53;;;;;;;6.25;0.70;;;;;;;15.40;66.67;101062.50;5023710;28;20049;-76
2023/07/06 02:34:24;;;;;;;2.13;0.73;;;;;;;15.39;66.74;101058.13;5024226;28;20495;-77
2023/07/06 02:36:52;;;;;;;3.33;0.60;;;;;;;15.37;66.70;101058.19;5023958;28;20128;-77
2023/07/06 02:39:20;;;;;;;2.35;1.42;;;;;;;15.32;66.72;101052.22;5024690;28;20482;-78
2023/07/06 02:41:47;;;;;;;2.58;1.00;;;;;;;15.31;66.73;101050.47;5029110;28;20041;-77
2023/07/06 02:44:14;;;;;;;4.53;0.50;;;;;;;15.17;66.94;101026.41;5028230;28;20052;-77
2023/07/06 02:46:41;;;;;;;3.10;0.40;;;;;;;15.16;67.05;101037.84;5026710;28;20520;-78
2023/07/06 02:49:08;;;;;;;4.15;0.73;;;;;;;15.23;67.15;101047.28;5025307;28;20429;-78
2023/07/06 02:51:36;;;;;;;2.67;0.60;;;;;;;15.24;67.08;101044.56;5023306;28;20053;-77
2023/07/06 02:54:03;;;;;;;4.40;0.63;;;;;;;15.21;67.43;101054.34;5026113;28;20068;-73
2023/07/06 02:56:30;;;;;;;2.17;0.45;;;;;;;15.19;67.49;101062.28;5024613;28;20053;-76
2023/07/06 02:58:57;;;;;;;1.60;0.50;;;;;;;15.17;67.47;101052.72;5023665;28;20050;-76
2023/07/06 03:01:24;;;;;;;5.32;0.57;;;;;;;15.15;67.82;101050.16;5028278;28;20093;-77
2023/07/06 03:03:51;;;;;;;2.67;0.70;;;;;;;15.15;68.00;101044.88;5025644;28;20393;-76
2023/07/06 03:06:18;;;;;;;5.18;0.68;;;;;;;15.07;67.99;101037.25;5026960;28;20049;-76
2023/07/06 03:08:47;;;;;;;6.13;0.60;;;;;;;15.12;68.00;101044.13;5024357;28;20053;-76
2023/07/06 03:11:14;;;;;;;2.88;0.90;;;;;;;15.10;68.27;101054.69;5030390;28;20054;-76
2023/07/06 03:13:41;;;;;;;5.72;0.40;;;;;;;15.07;68.53;101053.03;5025070;28;20081;-76
2023/07/06 03:16:08;;;;;;;3.15;0.65;;;;;;;15.05;68.47;101051.34;5026168;28;20037;-76
2023/07/06 03:18:35;;;;;;;2.30;0.50;;;;;;;15.04;68.44;101054.91;5025677;28;20049;-76
2023/07/06 03:21:02;;;;;;;1.38;0.57;;;;;;;15.03;68.43;101053.19;5026959;28;20053;-76
2023/07/06 03:23:29;;;;;;;3.78;0.70;;;;;;;14.98;68.72;101058.59;5027741;28;20077;-77
2023/07/06 03:25:58;;;;;;;3.13;0.80;;;;;;;14.98;69.21;101058.59;5026319;28;20049;-76
2023/07/06 03:28:24;;;;;;;3.58;1.00;;;;;;;14.97;69.14;101062.16;5027573;28;20050;-76
2023/07/06 03:30:55;;;;;;;5.53;1.70;;;;;;;14.95;69.28;101057.84;5024354;28;20513;-76
2023/07/06 03:33:24;;;;;;;3.47;0.80;;;;;;;14.94;69.33;101056.09;5027235;28;20477;-76
2023/07/06 03:35:53;;;;;;;2.63;0.77;;;;;;;14.92;69.34;101050.03;5027616;28;20441;-76
2023/07/06 03:38:21;;;;;;;2.65;0.50;;;;;;;14.95;69.47;101053.44;5029056;28;20049;-76
2023/07/06 03:40:51;;;;;;;2.58;0.70;;;;;;;14.94;69.39;101056.97;5025339;28;20037;-76
2023/07/06 03:43:20;;;;;;;4.15;0.90;;;;;;;14.93;69.82;101060.50;5027287;28;20465;-76
2023/07/06 03:45:49;;;;;;;2.83;0.85;;;;;;;14.94;69.52;101056.97;5023761;28;20050;-76
2023/07/06 03:48:16;;;;;;;2.60;0.68;;;;;;;14.93;70.04;101049.97;5024278;28;20047;-75
2023/07/06 03:50:44;;;;;;;2.65;0.70;;;;;;;14.88;70.07;101046.63;5025750;28;20046;-78
2023/07/06 03:53:11;;;;;;;2.70;0.88;;;;;;;14.93;69.88;101042.09;5023430;28;20114;-78
2023/07/06 03:55:40;;;;;;;4.35;0.93;;;;;;;14.92;70.02;101045.63;5024807;28;20136;-78
2023/07/06 03:58:08;;;;;;;2.65;0.68;;;;;;;14.74;70.16;101018.16;5027204;28;20095;-78
2023/07/06 04:00:36;;;;;;;5.20;1.48;;;;;;;14.84;70.16;101024.84;5025579;28;20046;-79
2023/07/06 04:03:04;;;;;;;4.65;1.23;;;;;;;14.92;70.31;101042.16;5025773;28;20555;-78
2023/07/06 04:05:34;;;;;;;3.92;1.02;;;;;;;14.88;70.40;101022.09;5021706;28;20128;-78
2023/07/06 04:08:04;;;;;;;3.80;0.80;;;;;;;14.89;70.52;101029.09;5026694;28;20428;-78
2023/07/06 04:10:32;;;;;;;5.80;1.00;;;;;;;14.76;70.46;101002.31;5027586;28;20060;-78
2023/07/06 04:12:59;;;;;;;5.25;1.10;;;;;;;14.79;70.57;101010.13;5023992;28;20081;-80
2023/07/06 04:15:27;;;;;;;6.07;0.95;;;;;;;14.93;70.66;101020.19;5024151;28;20156;-80
2023/07/06 04:17:55;;;;;;;3.38;0.95;;;;;;;14.94;70.68;101029.78;5026019;28;20508;-78
2023/07/06 04:20:24;;;;;;;2.58;0.82;;;;;;;14.93;70.74;101028.94;5027582;28;20168;-77
2023/07/06 04:22:54;;;;;;;8.18;1.15;;;;;;;14.95;70.62;101027.13;5023205;28;20054;-77
2023/07/06 04:25:22;;;;;;;3.80;0.73;;;;;;;14.91;70.92;101014.13;5028088;28;20398;-75
2023/07/06 04:27:49;;;;;;;5.10;0.70;;;;;;;14.78;70.83;100998.75;5024589;28;20056;-77
2023/07/06 04:30:18;;;;;;;3.08;0.73;;;;;;;14.93;71.06;101017.56;5026230;28;20045;-78
2023/07/06 04:32:48;;;;;;;5.28;1.00;;;;;;;14.77;71.01;100990.88;5026709;28;20049;-78
2023/07/06 04:35:18;;;;;;;5.50;0.75;;;;;;;14.91;71.16;101008.84;5024593;28;20046;-78
2023/07/06 04:37:45;;;;;;;6.85;0.52;;;;;;;14.92;71.05;101007.97;5027800;28;20057;-78
2023/07/06 04:40:17;;;;;;;4.93;0.93;;;;;;;14.93;71.22;101007.88;5025404;28;20056;-77
2023/07/06 04:42:46;;;;;;;2.35;0.63;;;;;;;14.93;70.97;101001.78;5024113;28;20489;-79
2023/07/06 04:45:13;;;;;;;6.45;0.70;;;;;;;14.91;71.00;100993.91;5024621;28;20102;-78
2023/07/06 04:47:40;;;;;;;5.13;1.00;;;;;;;14.92;71.18;100990.41;5026531;28;20049;-78
2023/07/06 04:50:09;;;;;;;6.82;0.77;;;;;;;14.97;71.44;100995.50;5025474;28;20046;-78
2023/07/06 04:52:38;;;;;;;3.63;0.60;;;;;;;14.96;71.27;100997.28;5022063;28;20049;-77
2023/07/06 04:55:05;;;;;;;7.70;1.08;;;;;;;14.95;71.38;100994.69;5023680;28;20041;-77
2023/07/06 04:57:32;;;;;;;7.40;0.77;;;;;;;14.90;71.62;100984.31;5023854;28;21046;-79
2023/07/06 05:00:01;;;;;;;6.95;0.98;;;;;;;14.85;71.69;100978.34;5024931;28;20523;-78
2023/07/06 05:02:30;;;;;;;8.68;1.30;;;;;;;14.85;71.86;100967.81;5023271;28;20425;-78
2023/07/06 05:04:57;;;;;;;7.45;0.88;;;;;;;14.87;71.81;100973.91;5024317;28;20057;-78
2023/07/06 05:07:23;;;;;;;4.50;0.80;;;;;;;14.87;71.85;100973.91;5023279;28;20061;-76
2023/07/06 05:09:52;;;;;;;4.00;0.63;;;;;;;14.84;71.77;100960.84;5024362;28;20135;-78
2023/07/06 05:12:19;;;;;;;3.00;0.75;;;;;;;14.78;72.08;100954.03;5025155;28;20049;-79
2023/07/06 05:14:46;;;;;;;2.97;0.68;;;;;;;14.90;72.00;100981.69;5020440;28;20053;-79
2023/07/06 05:17:14;;;;;;;3.03;0.70;;;;;;;14.92;72.17;100974.63;5023614;28;20049;-78
2023/07/06 05:19:42;;;;;;;4.15;0.88;;;;;;;14.93;72.37;100971.06;5021162;28;20050;-77
2023/07/06 05:22:09;;;;;;;7.00;0.98;;;;;;;14.93;72.53;100976.31;5023967;28;20138;-78
2023/07/06 05:24:36;;;;;;;4.63;0.77;;;;;;;14.90;72.39;100958.03;5019827;28;20053;-78
2023/07/06 05:27:05;;;;;;;5.15;1.02;;;;;;;14.97;72.43;100971.81;5024552;28;20049;-77
2023/07/06 05:29:32;;;;;;;3.58;1.58;;;;;;;14.98;72.68;100968.28;5023382;28;20045;-78
2023/07/06 05:31:59;;;;;;;6.47;0.88;;;;;;;14.98;72.83;100969.16;5025412;28;20096;-78
2023/07/06 05:34:26;;;;;;;3.40;1.00;;;;;;;14.94;73.04;100954.41;5024192;28;20722;-77
2023/07/06 05:36:53;;;;;;;4.22;1.00;;;;;;;14.96;73.02;100946.44;5020262;28;20045;-78
2023/07/06 05:39:20;;;;;;;6.10;1.60;;;;;;;14.99;73.42;100954.22;5022398;28;20049;-78
2023/07/06 05:41:47;;;;;;;4.63;1.08;;;;;;;14.89;73.31;100927.38;5022203;28;20476;-78
2023/07/06 05:44:16;;;;;;;5.57;1.55;;;;;;;15.06;73.85;100958.38;5022992;28;20045;-79
2023/07/06 05:46:43;;;;;;;7.18;1.95;;;;;;;15.12;73.81;100967.84;5025069;28;20452;-78
2023/07/06 05:49:10;;;;;;;8.25;1.75;;;;;;;15.13;74.03;100966.91;5024651;28;20037;-79
2023/07/06 05:51:36;;;;;;;6.20;1.88;;;;;;;15.01;74.22;100937.47;5021898;28;20049;-78
2023/07/06 05:54:04;;;;;;;9.57;1.40;;;;;;;15.18;74.61;100957.94;5023147;28;20057;-78
2023/07/06 05:56:31;;;;;;;3.47;1.30;;;;;;;15.20;74.83;100958.75;5023018;28;20580;-78
2023/07/06 05:58:59;;;;;;;7.40;1.85;;;;;;;15.10;75.07;100935.44;5022625;28;20049;-78
2023/07/06 06:01:29;;;;;;;2.17;0.98;;;;;;;15.28;74.93;100963.72;5024141;28;20061;-78
2023/07/06 06:03:56;;;;;;;5.25;1.08;;;;;;;15.32;75.04;100967.13;5020794;28;20060;-78
2023/07/06 06:06:26;;;;;;;4.25;0.98;;;;;;;15.31;75.17;100968.88;5023063;28;20064;-79
2023/07/06 06:08:53;;;;;;;3.17;1.00;;;;;;;15.37;75.02;100970.44;5019901;28;20049;-79
2023/07/06 06:11:21;;;;;;;5.97;1.17;;;;;;;15.29;75.35;100953.16;5023345;28;20104;-77
2023/07/06 06:13:49;;;;;;;4.97;1.58;;;;;;;15.41;75.42;100975.56;5022919;28;20052;-79
2023/07/06 06:16:16;;;;;;;4.85;1.95;;;;;;;15.37;75.45;100955.53;5029198;28;20057;-79
2023/07/06 06:18:44;;;;;;;7.03;2.42;;;;;;;15.44;75.44;100954.38;5027229;28;20071;-78
2023/07/06 06:21:11;;;;;;;5.78;2.05;;;;;;;15.37;75.60;100933.59;5026164;28;20052;-79
2023/07/06 06:23:42;;;;;;;8.68;2.97;;;;;;;15.55;75.99;100959.28;5027222;28;20421;-78
2023/07/06 06:26:09;;;;;;;7.22;2.80;;;;;;;15.59;75.90;100960.88;5026119;28;20507;-78
2023/07/06 06:28:36;;;;;;;10.32;3.70;;;;;;;15.63;76.21;100959.88;5028495;28;20053;-78
2023/07/06 06:31:03;;;;;;;13.10;4.30;;;;;;;15.62;76.35;100955.50;5026155;28;20505;-79
2023/07/06 06:33:31;;;;;;;15.30;4.22;;;;;;;15.67;76.49;100963.22;5021410;28;20045;-79
2023/07/06 06:35:59;;;;;;;12.10;4.90;;;;;;;15.55;76.47;100932.09;5025528;28;20658;-79
2023/07/06 06:38:26;;;;;;;13.43;5.35;;;;;;;15.77;76.87;100961.13;5027957;28;20056;-77
2023/07/06 06:40:53;;;;;;;12.38;6.30;;;;;;;15.84;76.92;100966.13;5024844;28;20046;-78
2023/07/06 06:43:20;;;;;;;10.05;5.18;;;;;;;15.94;77.09;100970.16;5025048;28;20052;-78
2023/07/06 06:45:47;;;;;;;14.13;4.78;;;;;;;16.01;76.78;100964.66;5021154;28;20041;-77
2023/07/06 06:48:14;;;;;;;15.18;5.38;;;;;;;16.08;76.60;100964.38;5021017;28;20049;-77
2023/07/06 06:50:41;;;;;;;17.90;5.55;;;;;;;16.13;76.66;100974.72;5024171;28;20046;-78
2023/07/06 06:53:11;;;;;;;10.48;4.90;;;;;;;16.19;76.77;100963.94;5021945;28;20052;-77
2023/07/06 06:55:38;;;;;;;14.25;4.95;;;;;;;16.26;76.68;100964.56;5020887;28;20084;-77
2023/07/06 06:58:05;;;;;;;9.43;4.45;;;;;;;16.30;76.63;100961.72;5022234;28;20564;-79
2023/07/06 07:00:33;;;;;;;16.23;5.28;;;;;;;16.39;76.57;100965.78;5027465;28;20152;-78
2023/07/06 07:03:00;;;;;;;11.02;5.70;;;;;;;16.43;76.78;100959.50;5022901;28;20057;-79
2023/07/06 07:05:27;;;;;;;19.30;6.70;;;;;;;16.40;76.98;100939.38;5025059;28;20095;-76
2023/07/06 07:07:54;;;;;;;16.27;5.43;;;;;;;16.60;76.97;100956.19;5025758;28;20041;-76
2023/07/06 07:10:23;;;;;;;7.45;4.65;;;;;;;16.74;76.62;100966.16;5024722;28;20124;-78
2023/07/06 07:12:50;;;;;;;9.20;4.82;;;;;;;16.79;76.42;100970.38;5030442;28;21902;-77
2023/07/06 07:15:17;;;;;;;14.95;5.85;;;;;;;16.92;76.06;100969.84;5025851;28;20053;-77
2023/07/06 07:17:45;;;;;;;11.23;5.53;;;;;;;16.86;75.96;100948.06;5028031;28;20037;-78
2023/07/06 07:20:13;;;;;;;9.35;4.57;;;;;;;17.07;75.92;100971.81;5023513;28;20045;-78
2023/07/06 07:22:41;;;;;;;9.00;4.68;;;;;;;17.14;75.68;100973.31;5024473;28;20053;-78
2023/07/06 07:25:19;;;;;;;9.90;4.65;;;;;;;17.16;75.72;100960.91;5025834;28;20056;-77
2023/07/06 07:27:48;;;;;;;20.40;5.65;;;;;;;17.34;76.19;100968.94;5023597;28;20053;-76
2023/07/06 07:30:15;;;;;;;9.98;4.57;;;;;;;17.44;75.87;100970.25;5021700;28;20219;-78
2023/07/06 07:32:42;;;;;;;14.02;5.05;;;;;;;17.49;75.18;100955.06;5026488;28;20037;-78
2023/07/06 07:35:09;;;;;;;11.50;4.22;;;;;;;17.64;74.97;100957.00;5024754;28;20126;-77
2023/07/06 07:37:36;;;;;;;8.55;4.68;;;;;;;17.76;74.86;100959.13;5024919;28;20782;-78
2023/07/06 07:40:05;;;;;;;7.18;4.07;;;;;;;17.87;74.44;100956.03;5029827;28;20042;-78
2023/07/06 07:42:32;;;;;;;10.80;4.07;;;;;;;17.96;74.10;100949.44;5025560;28;20100;-77
2023/07/06 07:45:00;;;;;;;12.02;4.20;;;;;;;18.07;74.42;100952.47;5021285;28;20045;-77
2023/07/06 07:47:27;;;;;;;6.53;2.15;;;;;;;18.14;73.42;100945.94;5019893;28;20043;-75
2023/07/06 07:49:54;;;;;;;6.07;2.17;;;;;;;18.27;72.89;100946.22;5018973;28;20504;-76
2023/07/06 07:52:21;;;;;;;6.78;3.05;;;;;;;18.38;72.73;100954.47;5018535;28;20050;-76
2023/07/06 07:54:48;;;;;;;8.73;3.72;;;;;;;18.45;72.90;100936.53;5017302;28;20052;-75
2023/07/06 07:57:15;;;;;;;6.25;2.97;;;;;;;18.60;72.36;100949.00;5022164;28;20077;-75
2023/07/06 07:59:42;;;;;;;7.97;2.65;;;;;;;18.72;71.69;100947.53;5025805;28;20099;-75
2023/07/06 08:02:11;;;;;;;8.32;2.55;;;;;;;18.77;71.83;100945.56;5023474;28;20045;-75
2023/07/06 08:04:38;;;;;;;7.70;3.35;;;;;;;18.94;71.56;100943.84;5025345;28;20131;-75
2023/07/06 08:07:05;;;;;;;9.75;2.97;;;;;;;19.01;70.95;100946.13;5024702;28;20511;-75
2023/07/06 08:09:32;;;;;;;7.50;3.70;;;;;;;19.07;70.69;100948.47;5026071;28;20464;-76
2023/07/06 08:11:59;;;;;;;4.65;2.60;;;;;;;19.14;69.99;100942.84;5021416;28;20504;-76
2023/07/06 08:14:36;;;;;;;6.63;2.20;;;;;;;19.14;70.01;100948.13;5023364;28;20172;-75
2023/07/06 08:17:04;;;;;;;5.70;2.45;;;;;;;19.28;69.96;100957.06;5025099;28;20084;-76
2023/07/06 08:19:33;;;;;;;8.43;2.50;;;;;;;19.35;69.51;100951.44;5021454;28;20073;-76
2023/07/06 08:22:00;;;;;;;4.22;2.28;;;;;;;19.39;69.64;100948.56;5025568;28;20052;-75
2023/07/06 08:24:29;;;;;;;2.60;2.00;;;;;;;19.48;69.36;100956.03;5024993;28;20515;-75
2023/07/06 08:26:56;;;;;;;7.50;1.13;;;;;;;19.55;68.08;100954.78;5024768;28;20041;-76
2023/07/06 08:29:23;;;;;;;4.82;1.58;;;;;;;19.60;68.37;100951.03;5024888;28;20060;-76
2023/07/06 08:31:51;;;;;;;8.18;1.88;;;;;;;19.67;67.77;100957.75;5024709;28;20052;-76
2023/07/06 08:34:17;;;;;;;6.80;1.75;;;;;;;19.74;66.70;100959.13;5022841;28;20045;-76
2023/07/06 08:36:46;;;;;;;4.05;1.40;;;;;;;19.73;66.75;100947.66;5024176;28;20067;-76
2023/07/06 08:39:14;;;;;;;7.47;1.30;;;;;;;19.85;66.36;100961.19;5022770;28;20096;-77
2023/07/06 08:41:45;;;;;;;7.03;1.20;;;;;;;19.89;66.04;100955.63;5024113;28;20478;-74
2023/07/06 08:44:15;;;;;;;2.33;0.70;;;;;;;19.98;66.18;100949.00;5018246;28;20046;-76
2023/07/06 08:46:47;;;;;;;2.75;0.73;;;;;;;20.07;64.88;100958.25;5023397;28;20052;-76
2023/07/06 08:49:22;;;;;;;2.53;0.80;;;;;;;20.11;63.99;100957.13;5022422;28;20058;-76
2023/07/06 08:51:53;;;;;;;3.55;0.77;;;;;;;20.16;63.23;100955.91;5017919;28;20053;-76
2023/07/06 08:54:22;;;;;;;5.15;1.23;;;;;;;20.20;62.28;100961.91;5023391;28;20073;-77
2023/07/06 08:56:50;;;;;;;3.65;0.70;;;;;;;20.22;61.71;100962.69;5023409;28;20048;-76
2023/07/06 08:59:27;;;;;;;6.10;0.65;;;;;;;20.23;60.97;100956.41;5023346;28;20045;-77
2023/07/06 09:01:54;;;;;;;3.10;0.50;;;;;;;20.30;60.69;100967.56;5025062;28;20058;-76
2023/07/06 09:04:24;;;;;;;6.55;0.30;;;;;;;20.35;59.93;100970.78;5022050;28;20528;-76
2023/07/06 09:06:56;;;;;;;3.90;0.40;;;;;;;20.29;58.30;100950.81;5026119;28;20053;-76
2023/07/06 09:09:23;;;;;;;2.63;0.50;;;;;;;20.40;59.21;100974.03;5023430;28;20061;-76
2023/07/06 09:11:52;;;;;;;1.65;0.30;;;;;;;20.40;58.14;100968.75;5022816;28;20060;-76
2023/07/06 09:14:24;;;;;;;0.80;0.30;;;;;;;20.41;57.96;100966.00;5024600;28;20056;-76
2023/07/06 09:16:55;;;;;;;1.13;0.20;;;;;;;20.45;57.51;100972.00;5024967;28;20513;-75
2023/07/06 09:19:23;;;;;;;2.40;0.30;;;;;;;20.49;56.98;100973.56;5022304;28;20498;-77
2023/07/06 09:21:56;;;;;;;2.50;0.30;;;;;;;20.52;57.21;100981.34;5021272;28;20413;-76
2023/07/06 09:24:30;;;;;;;0.57;0.30;;;;;;;20.56;57.33;100984.69;5021261;28;20072;-76
2023/07/06 09:26:58;;;;;;;1.67;0.20;;;;;;;20.59;57.07;100980.06;5022055;28;20140;-79
2023/07/06 09:29:31;;;;;;;0.70;0.40;;;;;;;20.63;56.87;100984.28;5024586;28;20057;-79
2023/07/06 09:32:11;;;;;;;1.95;0.20;;;;;;;20.65;56.61;100974.41;5020458;28;20423;-78
2023/07/06 09:34:41;;;;;;;2.75;0.20;;;;;;;20.56;56.15;100968.78;5026413;28;20140;-78
2023/07/06 09:37:13;;;;;;;2.70;0.20;;;;;;;20.69;55.02;100980.41;5021325;28;20050;-78
2023/07/06 09:39:40;;;;;;;1.13;0.20;;;;;;;20.56;55.52;100960.81;5023674;28;20046;-78
2023/07/06 09:42:14;;;;;;;2.22;0.20;;;;;;;20.63;55.55;100968.34;5026173;28;20072;-77
2023/07/06 09:44:42;;;;;;;2.97;0.30;;;;;;;20.78;55.17;100984.34;5023311;28;20139;-77
2023/07/06 09:47:15;;;;;;;3.05;0.90;;;;;;;20.51;54.89;100933.66;5027977;28;20417;-78
2023/07/06 09:49:48;;;;;;;0.65;0.22;;;;;;;20.75;55.29;100974.75;5023083;28;20551;-77
2023/07/06 09:52:19;;;;;;;2.08;1.15;;;;;;;20.77;55.57;100967.53;5023231;28;20073;-77
2023/07/06 09:54:52;;;;;;;2.08;0.30;;;;;;;20.80;55.21;100967.34;5027094;28;20045;-77
2023/07/06 09:57:19;;;;;;;2.80;0.40;;;;;;;20.85;56.28;100965.28;5026418;28;20136;-78
2023/07/06 09:59:52;;;;;;;1.35;0.40;;;;;;;20.96;55.28;100983.25;5026148;28;20136;-77
2023/07/06 10:02:35;;;;;;;1.27;0.30;;;;;;;20.99;55.15;100984.88;5022760;28;20065;-78
2023/07/06 10:05:16;;;;;;;1.80;0.30;;;;;;;20.85;54.21;100962.63;5027875;28;20060;-78
2023/07/06 10:07:53;;;;;;;5.43;0.40;;;;;;;20.99;53.22;100984.88;5027790;28;20050;-77
2023/07/06 10:10:40;;;;;;;1.10;0.32;;;;;;;20.86;54.28;100950.19;5027257;28;20440;-76
2023/07/06 10:13:16;;;;;;;2.67;0.30;;;;;;;20.92;54.09;100970.22;5022727;28;20045;-77
2023/07/06 10:15:52;;;;;;;4.72;0.40;;;;;;;20.98;53.97;100977.84;5023991;28;20063;-77
2023/07/06 10:18:24;;;;;;;2.85;0.65;;;;;;;20.97;54.52;100973.47;5021739;28;20497;-76
2023/07/06 10:20:56;;;;;;;4.95;0.50;;;;;;;20.99;54.17;100974.25;5025904;28;20053;-76
2023/07/06 10:23:34;;;;;;;0.80;0.30;;;;;;;21.00;54.30;100974.13;5022597;28;20061;-75
2023/07/06 10:26:12;;;;;;;2.90;0.40;;;;;;;21.03;54.30;100989.03;5023930;28;20372;-78
2023/07/06 10:28:46;;;;;;;3.67;0.40;;;;;;;20.98;54.61;100972.53;5022524;28;20052;-77
2023/07/06 10:31:18;;;;;;;2.38;0.38;;;;;;;21.07;54.63;100982.63;5023758;28;20048;-77
2023/07/06 10:33:53;;;;;;;1.83;0.50;;;;;;;21.07;54.50;100990.59;5025230;28;20081;-77
2023/07/06 10:36:20;;;;;;;5.28;0.40;;;;;;;21.01;54.55;100975.03;5025061;28;20449;-77
2023/07/06 10:38:50;;;;;;;1.63;0.40;;;;;;;21.05;54.42;100987.16;5025516;28;20041;-77
2023/07/06 10:41:22;;;;;;;1.23;0.43;;;;;;;20.94;53.81;100965.69;5024540;28;20655;-80
2023/07/06 10:43:51;;;;;;;1.73;0.30;;;;;;;20.98;54.05;100985.81;5025388;28;20397;-80
2023/07/06 10:46:30;;;;;;;6.53;0.35;;;;;;;20.90;54.86;100973.00;5028857;28;20044;-80
2023/07/06 10:48:59;;;;;;;0.55;0.30;;;;;;;20.99;54.92;100993.69;5026501;28;20056;-79
2023/07/06 10:51:27;;;;;;;2.47;0.30;;;;;;;21.00;54.79;100994.53;5028519;28;20568;-80
2023/07/06 10:54:16;;;;;;;3.13;0.43;;;;;;;20.98;54.45;100996.44;5021484;28;20042;-79
2023/07/06 10:56:47;;;;;;;4.18;0.30;;;;;;;20.91;54.57;100984.47;5022945;28;20386;-80
2023/07/06 10:59:17;;;;;;;4.72;0.30;;;;;;;20.94;54.39;100992.25;5024435;28;20069;-79
2023/07/06 11:01:45;;;;;;;5.95;0.30;;;;;;;20.81;54.44;100970.88;5029702;28;20409;-79
2023/07/06 11:04:45;;;;;;;3.25;0.30;;;;;;;20.94;54.43;100992.25;5028786;28;20096;-79
2023/07/06 11:07:14;;;;;;;2.03;0.30;;;;;;;20.94;53.90;100994.91;5025939;28;20050;-80
2023/07/06 11:10:15;;;;;;;2.90;0.30;;;;;;;20.91;53.80;100990.63;5028772;28;20054;-79
2023/07/06 11:12:53;;;;;;;1.70;0.30;;;;;;;20.89;53.79;100997.84;5026552;28;20050;-80
2023/07/06 11:15:23;;;;;;;4.97;0.68;;;;;;;20.86;53.46;101003.31;5023480;28;20149;-75
2023/07/06 11:17:53;;;;;;;1.55;0.22;;;;;;;20.83;53.32;100991.09;5020856;28;20045;-77
2023/07/06 11:20:23;;;;;;;6.10;0.40;;;;;;;20.81;53.26;100990.31;5021546;28;20048;-76
2023/07/06 11:22:56;;;;;;;3.03;0.28;;;;;;;20.78;53.20;100990.50;5024362;28;20252;-76
2023/07/06 11:25:29;;;;;;;1.95;0.30;;;;;;;20.75;53.88;100990.66;5021272;28;20053;-76
2023/07/06 11:28:02;;;;;;;1.50;0.30;;;;;;;20.78;53.56;101011.72;5024916;28;20141;-76
2023/07/06 11:30:42;;;;;;;2.88;0.20;;;;;;;20.63;53.39;100994.00;5015808;28;20057;-76
2023/07/06 11:33:22;;;;;;;3.95;0.30;;;;;;;20.72;53.24;101013.84;5017800;28;20052;-78
2023/07/06 11:35:58;;;;;;;2.67;0.30;;;;;;;20.40;53.26;100963.44;5011688;28;20053;-76
2023/07/06 11:38:49;;;;;;;2.17;0.30;;;;;;;20.69;53.92;101022.88;5026339;28;20056;-76